createdAt,value
2022-10-22T00:01:58.851Z,5.07
2022-10-22T00:04:48.295Z,5.05
2022-10-22T00:07:36.839Z,5.06
2022-10-22T00:10:26.063Z,5.06
2022-10-22T00:13:16.300Z,5.05
2022-10-22T00:16:04.723Z,5.02
2022-10-22T00:18:54.030Z,5.00
2022-10-22T00:21:42.312Z,5.01
2022-10-22T00:24:30.771Z,5.01
2022-10-22T00:27:19.478Z,5.01
2022-10-22T00:30:12.531Z,5.02
2022-10-22T00:33:00.512Z,5.03
2022-10-22T00:35:49.362Z,5.02
2022-10-22T00:38:37.822Z,5.01
2022-10-22T00:41:26.784Z,5.00
2022-10-22T00:44:46.604Z,4.99
2022-10-22T00:47:37.865Z,4.97
2022-10-22T00:50:32.206Z,4.98
2022-10-22T00:53:25.746Z,4.96
2022-10-22T00:56:14.250Z,4.96
2022-10-22T00:59:04.224Z,4.94
2022-10-22T01:01:53.411Z,4.91
2022-10-22T01:04:42.210Z,4.92
2022-10-22T01:07:31.142Z,4.92
2022-10-22T01:10:31.272Z,4.89
2022-10-22T01:13:29.338Z,4.89
2022-10-22T01:16:22.679Z,4.89
2022-10-22T01:19:38.936Z,4.99
2022-10-22T01:22:35.587Z,5.02
2022-10-22T01:25:33.619Z,5.04
2022-10-22T01:28:29.955Z,5.02
2022-10-22T01:31:24.023Z,5.02
2022-10-22T01:34:18.975Z,5.02
2022-10-22T01:37:13.404Z,5.01
2022-10-22T01:40:07.561Z,4.98
2022-10-22T01:43:02.794Z,4.98
2022-10-22T01:45:57.928Z,4.96
2022-10-22T01:48:59.418Z,4.95
2022-10-22T01:52:03.836Z,4.97
2022-10-22T01:55:13.233Z,4.96
2022-10-22T01:58:20.828Z,4.97
2022-10-22T02:01:23.923Z,4.97
2022-10-22T02:04:17.897Z,4.98
2022-10-22T02:07:14.534Z,4.98
2022-10-22T02:10:10.426Z,4.99
2022-10-22T02:13:04.529Z,5.01
2022-10-22T02:15:58.297Z,5.01
2022-10-22T02:18:52.666Z,5.04
2022-10-22T02:21:45.947Z,5.03
2022-10-22T02:24:38.581Z,5.04
2022-10-22T02:27:37.797Z,5.06
2022-10-22T02:30:30.107Z,5.07
2022-10-22T02:33:27.731Z,5.09
2022-10-22T02:36:20.433Z,5.10
2022-10-22T02:39:11.635Z,5.10
2022-10-22T02:42:04.461Z,5.10
2022-10-22T02:44:56.849Z,5.10
2022-10-22T02:47:49.010Z,5.11
2022-10-22T02:50:41.010Z,5.11
2022-10-22T02:53:33.340Z,5.13
2022-10-22T02:56:25.343Z,5.14
2022-10-22T02:59:17.520Z,5.13
2022-10-22T03:02:09.735Z,5.14
2022-10-22T03:05:01.391Z,5.16
2022-10-22T03:07:53.402Z,5.12
2022-10-22T03:10:45.467Z,5.15
2022-10-22T03:13:36.943Z,5.14
2022-10-22T03:16:29.230Z,5.15
2022-10-22T03:19:21.733Z,5.16
2022-10-22T03:22:18.271Z,5.14
2022-10-22T03:25:15.805Z,5.14
2022-10-22T03:28:11.011Z,5.15
2022-10-22T03:31:02.422Z,5.13
2022-10-22T03:33:54.379Z,5.11
2022-10-22T03:36:46.629Z,5.13
2022-10-22T03:39:40.322Z,5.12
2022-10-22T03:42:32.674Z,5.11
2022-10-22T03:45:24.587Z,5.11
2022-10-22T03:48:17.407Z,5.10
2022-10-22T03:51:10.596Z,5.09
2022-10-22T03:54:03.310Z,5.09
2022-10-22T03:56:55.924Z,5.09
2022-10-22T03:59:49.188Z,5.09
2022-10-22T04:02:41.115Z,5.10
2022-10-22T04:05:33.580Z,5.09
2022-10-22T04:08:23.673Z,5.10
2022-10-22T04:11:16.386Z,5.08
2022-10-22T04:14:09.062Z,5.08
2022-10-22T04:17:01.880Z,5.11
2022-10-22T04:19:51.795Z,5.11
2022-10-22T04:22:43.646Z,5.10
2022-10-22T04:25:36.084Z,5.11
2022-10-22T04:28:27.891Z,5.12
2022-10-22T04:31:21.602Z,5.16
2022-10-22T04:34:13.638Z,5.19
2022-10-22T04:37:05.448Z,5.22
2022-10-22T04:39:58.279Z,5.26
2022-10-22T04:42:51.600Z,5.29
2022-10-22T04:45:43.570Z,5.34
2022-10-22T04:48:35.798Z,5.36
2022-10-22T04:51:29.544Z,5.40
2022-10-22T04:54:21.701Z,5.45
2022-10-22T04:57:14.747Z,5.48
2022-10-22T05:00:10.228Z,5.53
2022-10-22T05:03:02.568Z,5.56
2022-10-22T05:05:54.538Z,5.60
2022-10-22T05:08:46.886Z,5.63
2022-10-22T05:11:45.598Z,5.66
2022-10-22T05:14:41.402Z,5.70
2022-10-22T05:17:39.120Z,5.74
2022-10-22T05:20:31.346Z,5.79
2022-10-22T05:23:23.346Z,5.82
2022-10-22T05:26:17.690Z,5.85
2022-10-22T05:29:09.752Z,5.88
2022-10-22T05:32:01.778Z,5.94
2022-10-22T05:34:53.692Z,5.97
2022-10-22T05:37:46.160Z,6.04
2022-10-22T05:40:38.780Z,6.10
2022-10-22T05:43:31.302Z,6.14
2022-10-22T05:46:25.399Z,6.19
2022-10-22T05:49:18.207Z,6.26
2022-10-22T05:52:10.523Z,6.30
2022-10-22T05:55:02.414Z,6.38
2022-10-22T05:57:54.916Z,6.43
2022-10-22T06:00:46.755Z,6.48
2022-10-22T06:03:38.770Z,6.55
2022-10-22T06:06:34.261Z,6.60
2022-10-22T06:09:29.363Z,6.66
2022-10-22T06:12:21.980Z,6.72
2022-10-22T06:15:16.404Z,6.78
2022-10-22T06:18:08.834Z,6.84
2022-10-22T06:21:07.479Z,6.91
2022-10-22T06:24:01.940Z,6.98
2022-10-22T06:26:55.875Z,7.04
2022-10-22T06:29:49.125Z,7.11
2022-10-22T06:32:41.767Z,7.18
2022-10-22T06:35:34.762Z,7.26
2022-10-22T06:38:24.801Z,7.33
2022-10-22T06:41:18.553Z,7.39
2022-10-22T06:44:14.761Z,7.47
2022-10-22T06:47:07.293Z,7.55
2022-10-22T06:49:59.554Z,7.62
2022-10-22T06:52:51.307Z,7.71
2022-10-22T06:55:43.748Z,7.81
2022-10-22T06:58:36.599Z,7.88
2022-10-22T07:01:31.025Z,7.98
2022-10-22T07:04:22.913Z,8.05
2022-10-22T07:07:15.767Z,8.16
2022-10-22T07:10:09.741Z,8.25
2022-10-22T07:13:02.287Z,8.36
2022-10-22T07:15:57.607Z,8.44
2022-10-22T07:18:49.901Z,8.55
2022-10-22T07:21:42.314Z,8.64
2022-10-22T07:24:34.920Z,8.76
2022-10-22T07:27:27.636Z,8.87
2022-10-22T07:30:18.163Z,8.97
2022-10-22T07:33:10.948Z,9.07
2022-10-22T07:36:05.876Z,9.17
2022-10-22T07:39:02.197Z,9.29
2022-10-22T07:41:56.326Z,9.39
2022-10-22T07:44:47.749Z,9.51
2022-10-22T07:47:39.979Z,9.62
2022-10-22T07:50:32.458Z,9.74
2022-10-22T07:53:24.654Z,9.83
2022-10-22T07:56:17.586Z,9.95
2022-10-22T07:59:07.693Z,10.06
2022-10-22T08:01:59.718Z,10.15
2022-10-22T08:04:51.955Z,10.26
2022-10-22T08:07:44.403Z,10.34
2022-10-22T08:10:36.640Z,10.45
2022-10-22T08:13:30.830Z,10.55
2022-10-22T08:16:22.954Z,10.64
2022-10-22T08:19:19.042Z,10.73
2022-10-22T08:22:11.958Z,10.82
2022-10-22T08:25:04.160Z,10.92
2022-10-22T08:27:56.407Z,11.02
2022-10-22T08:30:48.436Z,11.12
2022-10-22T08:33:41.880Z,11.22
2022-10-22T08:36:34.137Z,11.33
2022-10-22T08:39:26.171Z,11.45
2022-10-22T08:42:46.669Z,11.56
2022-10-22T08:45:47.507Z,11.71
2022-10-22T08:48:47.860Z,11.83
2022-10-22T08:51:40.818Z,11.97
2022-10-22T08:54:42.035Z,12.11
2022-10-22T08:57:49.965Z,12.24
2022-10-22T09:00:49.054Z,12.39
2022-10-22T09:03:52.742Z,12.52
2022-10-22T09:06:47.527Z,12.64
2022-10-22T09:09:50.936Z,12.78
2022-10-22T09:12:42.956Z,12.89
2022-10-22T09:15:34.776Z,13.04
2022-10-22T09:18:41.158Z,13.19
2022-10-22T09:21:41.617Z,13.34
2022-10-22T09:24:40.090Z,13.47
2022-10-22T09:27:33.162Z,13.59
2022-10-22T09:30:26.871Z,13.69
2022-10-22T09:33:23.923Z,13.81
2022-10-22T09:36:20.893Z,13.92
2022-10-22T09:39:28.527Z,14.04
2022-10-22T09:42:22.694Z,14.18
2022-10-22T09:45:21.306Z,14.33
2022-10-22T09:48:26.619Z,14.47
2022-10-22T09:51:22.078Z,14.60
2022-10-22T09:54:22.183Z,14.73
2022-10-22T09:57:22.797Z,14.87
2022-10-22T10:00:25.012Z,14.98
2022-10-22T10:03:22.727Z,15.17
2022-10-22T10:06:18.723Z,15.33
2022-10-22T10:09:16.850Z,15.50
2022-10-22T10:12:22.922Z,15.65
2022-10-22T10:15:26.572Z,15.78
2022-10-22T10:18:29.156Z,15.88
2022-10-22T10:21:30.937Z,15.96
2022-10-22T10:24:30.321Z,16.04
2022-10-22T10:27:32.486Z,16.11
2022-10-22T10:30:25.868Z,16.17
2022-10-22T10:33:29.463Z,16.23
2022-10-22T10:36:29.064Z,16.29
2022-10-22T10:39:25.681Z,16.34
2022-10-22T10:42:24.898Z,16.36
2022-10-22T10:45:27.039Z,16.38
2022-10-22T10:48:51.567Z,16.41
2022-10-22T10:51:54.317Z,16.43
2022-10-22T10:54:46.947Z,16.44
2022-10-22T10:57:47.522Z,16.43
2022-10-22T11:00:48.360Z,16.46
2022-10-22T11:03:54.464Z,16.47
2022-10-22T11:06:48.462Z,16.48
2022-10-22T11:09:45.269Z,16.50
2022-10-22T11:12:42.206Z,16.51
2022-10-22T11:15:37.103Z,16.51
2022-10-22T11:18:37.210Z,16.51
2022-10-22T11:21:34.472Z,16.51
2022-10-22T11:24:36.226Z,16.52
2022-10-22T11:27:33.145Z,16.53
2022-10-22T11:30:27.366Z,16.53
2022-10-22T11:33:23.930Z,16.54
2022-10-22T11:36:17.106Z,16.55
2022-10-22T11:39:28.745Z,16.57
2022-10-22T11:42:24.769Z,16.60
2022-10-22T11:48:21.029Z,16.63
2022-10-22T11:51:33.655Z,16.67
2022-10-22T11:54:46.106Z,16.71
2022-10-22T11:57:43.893Z,16.78
2022-10-22T12:00:48.537Z,16.83
2022-10-22T12:03:45.606Z,16.88
2022-10-22T12:06:57.727Z,16.93
2022-10-22T12:12:45.746Z,17.08
2022-10-22T12:15:47.719Z,17.16
2022-10-22T12:18:45.920Z,17.23
2022-10-22T12:21:39.348Z,17.26
2022-10-22T12:24:36.777Z,17.30
2022-10-22T12:27:34.912Z,17.36
2022-10-22T12:30:29.233Z,17.39
2022-10-22T12:33:26.615Z,17.41
2022-10-22T12:36:22.442Z,17.43
2022-10-22T12:39:17.296Z,17.45
2022-10-22T12:42:14.325Z,17.48
2022-10-22T12:45:08.126Z,17.49
2022-10-22T12:48:03.504Z,17.49
2022-10-22T12:50:57.379Z,17.50
2022-10-22T12:53:51.124Z,17.51
2022-10-22T12:56:43.235Z,17.53
2022-10-22T12:59:38.704Z,17.52
2022-10-22T13:02:31.775Z,17.51
2022-10-22T13:05:34.450Z,17.50
2022-10-22T13:08:30.272Z,17.51
2022-10-22T13:11:23.860Z,17.51
2022-10-22T13:14:23.533Z,17.51
2022-10-22T13:17:17.982Z,17.52
2022-10-22T13:20:21.121Z,17.52
2022-10-22T13:23:24.264Z,17.53
2022-10-22T13:26:18.523Z,17.53
2022-10-22T13:29:19.460Z,17.56
2022-10-22T13:32:28.744Z,17.57
2022-10-22T13:35:23.250Z,17.58
2022-10-22T13:38:20.607Z,17.59
2022-10-22T13:41:24.929Z,17.61
2022-10-22T13:44:16.886Z,17.61
2022-10-22T13:47:16.350Z,17.62
2022-10-22T13:50:14.794Z,17.61
2022-10-22T13:53:08.346Z,17.63
2022-10-22T13:56:00.739Z,17.62
2022-10-22T13:58:54.139Z,17.61
2022-10-22T14:01:46.863Z,17.62
2022-10-22T14:04:41.557Z,17.61
2022-10-22T14:07:34.812Z,17.59
2022-10-22T14:10:28.277Z,17.60
2022-10-22T14:13:21.596Z,17.58
2022-10-22T14:16:19.551Z,17.56
2022-10-22T14:19:16.593Z,17.55
2022-10-22T14:22:09.755Z,17.53
2022-10-22T14:25:02.411Z,17.51
2022-10-22T14:27:54.269Z,17.48
2022-10-22T14:30:46.621Z,17.47
2022-10-22T14:33:38.454Z,17.44
2022-10-22T14:36:31.099Z,17.42
2022-10-22T14:39:23.175Z,17.38
2022-10-22T14:42:13.652Z,17.36
2022-10-22T14:45:06.204Z,17.33
2022-10-22T14:47:56.421Z,17.29
2022-10-22T14:50:49.140Z,17.25
2022-10-22T14:53:41.008Z,17.22
2022-10-22T14:56:33.908Z,17.18
2022-10-22T14:59:26.531Z,17.15
2022-10-22T15:02:18.774Z,17.12
2022-10-22T15:05:12.909Z,17.10
2022-10-22T15:08:05.993Z,17.05
2022-10-22T15:11:06.452Z,17.02
2022-10-22T15:13:58.271Z,16.99
2022-10-22T15:16:50.062Z,16.95
2022-10-22T15:19:41.612Z,16.92
2022-10-22T15:22:35.518Z,16.88
2022-10-22T15:25:27.724Z,16.83
2022-10-22T15:28:20.205Z,16.79
2022-10-22T15:31:13.871Z,16.76
2022-10-22T15:34:05.840Z,16.72
2022-10-22T15:37:00.295Z,16.69
2022-10-22T15:39:52.595Z,16.63
2022-10-22T15:42:46.888Z,16.60
2022-10-22T15:45:39.344Z,16.57
2022-10-22T15:48:31.825Z,16.51
2022-10-22T15:51:22.396Z,16.47
2022-10-22T15:54:17.979Z,16.42
2022-10-22T15:57:10.935Z,16.36
2022-10-22T16:00:03.065Z,16.30
2022-10-22T16:03:04.670Z,16.25
2022-10-22T16:05:57.945Z,16.21
2022-10-22T16:08:49.968Z,16.16
2022-10-22T16:11:42.555Z,16.11
2022-10-22T16:14:34.536Z,16.07
2022-10-22T16:17:26.417Z,16.03
2022-10-22T16:20:18.237Z,15.98
2022-10-22T16:23:10.279Z,15.93
2022-10-22T16:26:05.205Z,15.89
2022-10-22T16:28:59.344Z,15.84
2022-10-22T16:31:51.487Z,15.80
2022-10-22T16:34:43.806Z,15.74
2022-10-22T16:37:35.807Z,15.68
2022-10-22T16:40:26.149Z,15.62
2022-10-22T16:43:18.386Z,15.55
2022-10-22T16:46:12.582Z,15.49
2022-10-22T16:49:05.939Z,15.43
2022-10-22T16:51:58.242Z,15.36
2022-10-22T16:54:50.805Z,15.29
2022-10-22T16:57:43.280Z,15.24
2022-10-22T17:00:36.159Z,15.18
2022-10-22T17:03:28.526Z,15.13
2022-10-22T17:06:21.037Z,15.10
2022-10-22T17:09:13.355Z,15.04
2022-10-22T17:12:05.729Z,15.00
2022-10-22T17:14:57.701Z,14.98
2022-10-22T17:17:54.031Z,14.93
2022-10-22T17:20:47.290Z,14.91
2022-10-22T17:23:37.277Z,14.89
2022-10-22T17:26:29.631Z,14.85
2022-10-22T17:29:22.212Z,14.80
2022-10-22T17:32:14.293Z,14.78
2022-10-22T17:35:08.621Z,14.73
2022-10-22T17:38:00.957Z,14.71
2022-10-22T17:40:51.519Z,14.69
2022-10-22T17:46:43.981Z,14.60
2022-10-22T17:49:36.008Z,14.57
2022-10-22T17:52:27.834Z,14.53
2022-10-22T17:55:19.848Z,14.49
2022-10-22T17:58:11.690Z,14.46
2022-10-22T18:01:04.538Z,14.42
2022-10-22T18:04:00.385Z,14.37
2022-10-22T18:06:52.837Z,14.31
2022-10-22T18:09:45.142Z,14.26
2022-10-22T18:12:36.594Z,14.20
2022-10-22T18:15:28.390Z,14.15
2022-10-22T18:18:20.836Z,14.12
2022-10-22T18:21:12.456Z,14.05
2022-10-22T18:24:04.570Z,14.00
2022-10-22T18:26:57.229Z,13.94
2022-10-22T18:29:50.335Z,13.89
2022-10-22T18:32:42.427Z,13.81
2022-10-22T18:35:36.589Z,13.75
2022-10-22T18:38:28.693Z,13.69
2022-10-22T18:41:21.453Z,13.63
2022-10-22T18:44:15.991Z,13.57
2022-10-22T18:47:08.932Z,13.53
2022-10-22T18:50:00.759Z,13.46
2022-10-22T18:52:52.541Z,13.41
2022-10-22T18:55:45.960Z,13.35
2022-10-22T18:58:43.354Z,13.31
2022-10-22T19:01:35.970Z,13.26
2022-10-22T19:04:31.396Z,13.23
2022-10-22T19:07:23.804Z,13.17
2022-10-22T19:10:16.311Z,13.15
2022-10-22T19:13:08.482Z,13.10
2022-10-22T19:16:06.300Z,13.06
2022-10-22T19:19:03.561Z,13.03
2022-10-22T19:21:59.939Z,12.99
2022-10-22T19:24:54.402Z,12.95
2022-10-22T19:27:46.458Z,12.91
2022-10-22T19:30:44.261Z,12.87
2022-10-22T19:33:38.800Z,12.83
2022-10-22T19:36:32.832Z,12.78
2022-10-22T19:39:25.095Z,12.74
2022-10-22T19:42:17.607Z,12.68
2022-10-22T19:45:09.662Z,12.63
2022-10-22T19:48:02.394Z,12.56
2022-10-22T19:50:58.643Z,12.52
2022-10-22T19:53:52.691Z,12.47
2022-10-22T19:56:45.001Z,12.41
2022-10-22T19:59:36.838Z,12.38
2022-10-22T20:02:28.862Z,12.33
2022-10-22T20:08:18.423Z,12.23
2022-10-22T20:11:13.673Z,12.18
2022-10-22T20:14:05.675Z,12.16
2022-10-22T20:16:57.827Z,12.12
2022-10-22T20:19:50.063Z,12.08
2022-10-22T20:22:43.613Z,12.03
2022-10-22T20:25:36.525Z,11.98
2022-10-22T20:28:28.615Z,11.96
2022-10-22T20:31:23.087Z,11.92
2022-10-22T20:34:15.760Z,11.88
2022-10-22T20:37:07.790Z,11.84
2022-10-22T20:39:59.815Z,11.81
2022-10-22T20:42:52.258Z,11.77
2022-10-22T20:45:42.441Z,11.73
2022-10-22T20:48:35.082Z,11.66
2022-10-22T20:51:25.280Z,11.62
2022-10-22T20:54:19.373Z,11.58
2022-10-22T20:57:12.061Z,11.55
2022-10-22T21:00:03.832Z,11.50
2022-10-22T21:02:56.478Z,11.49
2022-10-22T21:05:46.663Z,11.44
2022-10-22T21:08:38.097Z,11.42
2022-10-22T21:11:30.422Z,11.39
2022-10-22T21:14:23.537Z,11.33
2022-10-22T21:17:16.265Z,11.30
2022-10-22T21:23:07.585Z,11.23
2022-10-22T21:26:01.242Z,11.21
2022-10-22T21:28:53.361Z,11.19
2022-10-22T21:31:45.841Z,11.18
2022-10-22T21:34:39.047Z,11.15
2022-10-22T21:37:33.636Z,11.11
2022-10-22T21:40:27.864Z,11.08
2022-10-22T21:43:20.304Z,11.08
2022-10-22T21:46:16.007Z,11.06
2022-10-22T21:49:08.087Z,11.05
2022-10-22T21:52:02.978Z,11.02
2022-10-22T21:54:54.716Z,10.99
2022-10-22T21:57:47.188Z,10.98
2022-10-22T22:00:39.491Z,10.98
2022-10-22T22:03:32.347Z,10.95
2022-10-22T22:06:29.581Z,10.94
2022-10-22T22:09:24.822Z,10.93
2022-10-22T22:12:16.640Z,10.90
2022-10-22T22:15:11.607Z,10.89
2022-10-22T22:18:03.738Z,10.87
2022-10-22T22:20:55.186Z,10.85
2022-10-22T22:23:53.148Z,10.84
2022-10-22T22:26:45.329Z,10.82
2022-10-22T22:29:37.223Z,10.82
2022-10-22T22:32:29.094Z,10.82
2022-10-22T22:35:21.096Z,10.80
2022-10-22T22:38:13.267Z,10.79
2022-10-22T22:41:06.512Z,10.78
2022-10-22T22:43:59.159Z,10.78
2022-10-22T22:46:51.041Z,10.77
2022-10-22T22:49:43.223Z,10.77
2022-10-22T22:52:35.046Z,10.76
2022-10-22T22:55:27.580Z,10.77
2022-10-22T22:58:18.088Z,10.76
2022-10-22T23:01:17.585Z,10.76
2022-10-22T23:04:12.609Z,10.76
2022-10-22T23:07:04.629Z,10.75
2022-10-22T23:09:56.228Z,10.74
2022-10-22T23:12:48.266Z,10.73
2022-10-22T23:15:42.360Z,10.71
2022-10-22T23:18:35.425Z,10.70
2022-10-22T23:21:26.217Z,10.69
2022-10-22T23:24:20.424Z,10.65
2022-10-22T23:27:13.849Z,10.62
2022-10-22T23:30:06.696Z,10.62
2022-10-22T23:32:59.484Z,10.60
2022-10-22T23:35:49.449Z,10.60
2022-10-22T23:38:43.733Z,10.59
2022-10-22T23:41:36.667Z,10.56
2022-10-22T23:44:28.871Z,10.55
2022-10-22T23:47:20.722Z,10.52
2022-10-22T23:50:13.619Z,10.50
2022-10-22T23:53:05.413Z,10.49
2022-10-22T23:55:57.520Z,10.49
2022-10-22T23:58:52.837Z,10.48
